createdAt,value
2018-04-27T00:00:09.517Z,76.43
2018-04-27T00:02:37.101Z,76.51
2018-04-27T00:05:04.914Z,76.37
2018-04-27T00:07:32.471Z,76.59
2018-04-27T00:10:00.031Z,76.38
2018-04-27T00:12:27.590Z,76.00
2018-04-27T00:14:55.254Z,76.06
2018-04-27T00:17:22.828Z,76.15
2018-04-27T00:19:50.785Z,75.81
2018-04-27T00:22:18.314Z,76.06
2018-04-27T00:24:46.575Z,76.27
2018-04-27T00:27:14.106Z,76.24
2018-04-27T00:29:41.662Z,76.22
2018-04-27T00:32:09.243Z,75.81
2018-04-27T00:34:36.807Z,75.99
2018-04-27T00:37:04.420Z,76.02
2018-04-27T00:39:32.025Z,76.10
2018-04-27T00:41:59.605Z,75.90
2018-04-27T00:44:27.141Z,75.86
2018-04-27T00:46:54.731Z,76.15
2018-04-27T00:49:22.530Z,76.39
2018-04-27T00:51:50.097Z,76.99
2018-04-27T00:54:17.653Z,77.82
2018-04-27T00:56:45.207Z,77.79
2018-04-27T00:59:12.764Z,78.14
2018-04-27T01:01:40.630Z,78.82
2018-04-27T01:04:08.167Z,78.97
2018-04-27T01:06:35.726Z,79.17
2018-04-27T01:09:03.489Z,78.96
2018-04-27T01:11:31.011Z,78.72
2018-04-27T01:13:58.627Z,78.82
2018-04-27T01:16:26.139Z,79.01
2018-04-27T01:18:53.736Z,79.08
2018-04-27T01:21:21.261Z,79.27
2018-04-27T01:23:48.809Z,79.18
2018-04-27T01:26:16.393Z,79.02
2018-04-27T01:28:43.926Z,79.62
2018-04-27T01:31:11.491Z,79.46
2018-04-27T01:33:39.115Z,79.58
2018-04-27T01:36:06.634Z,80.08
2018-04-27T01:38:34.209Z,80.12
2018-04-27T01:41:01.849Z,80.23
2018-04-27T01:43:29.384Z,80.33
2018-04-27T01:45:56.923Z,80.40
2018-04-27T01:48:24.481Z,80.29
2018-04-27T01:50:52.038Z,80.24
2018-04-27T01:53:19.642Z,80.20
2018-04-27T01:55:47.578Z,80.61
2018-04-27T01:58:15.222Z,80.62
2018-04-27T02:00:42.942Z,80.54
2018-04-27T02:03:10.511Z,80.47
2018-04-27T02:05:38.045Z,80.69
2018-04-27T02:08:05.574Z,80.31
2018-04-27T02:10:33.160Z,80.03
2018-04-27T02:13:00.720Z,79.90
2018-04-27T02:15:28.277Z,79.44
2018-04-27T02:17:55.873Z,79.44
2018-04-27T02:20:23.429Z,79.82
2018-04-27T02:22:50.950Z,79.75
2018-04-27T02:25:18.504Z,80.24
2018-04-27T02:27:46.044Z,79.95
2018-04-27T02:30:13.623Z,80.04
2018-04-27T02:32:41.184Z,79.65
2018-04-27T02:35:08.691Z,79.73
2018-04-27T02:37:36.246Z,79.66
2018-04-27T02:40:03.859Z,79.42
2018-04-27T02:42:31.397Z,79.23
2018-04-27T02:44:58.959Z,78.68
2018-04-27T02:47:26.517Z,79.12
2018-04-27T02:49:54.082Z,79.28
2018-04-27T02:52:21.598Z,79.41
2018-04-27T02:54:49.219Z,79.06
2018-04-27T02:57:16.744Z,78.71
2018-04-27T02:59:44.253Z,78.85
2018-04-27T03:02:11.779Z,78.55
2018-04-27T03:04:39.339Z,78.36
2018-04-27T03:07:06.935Z,78.05
2018-04-27T03:09:34.485Z,78.17
2018-04-27T03:12:02.371Z,78.18
2018-04-27T03:14:29.918Z,78.44
2018-04-27T03:16:57.481Z,78.04
2018-04-27T03:19:25.008Z,78.38
2018-04-27T03:21:52.534Z,78.27
2018-04-27T03:24:20.062Z,78.85
2018-04-27T03:26:47.583Z,79.10
2018-04-27T03:29:15.213Z,79.05
2018-04-27T03:31:42.747Z,79.18
2018-04-27T03:34:10.267Z,79.42
2018-04-27T03:36:38.088Z,79.26
2018-04-27T03:39:05.896Z,78.77
2018-04-27T03:41:33.402Z,78.56
2018-04-27T03:44:00.963Z,78.22
2018-04-27T03:46:28.502Z,77.85
2018-04-27T03:48:56.045Z,77.88
2018-04-27T03:51:23.579Z,77.92
2018-04-27T03:53:52.150Z,77.97
2018-04-27T03:56:19.670Z,78.10
2018-04-27T03:58:47.188Z,77.97
2018-04-27T04:01:26.897Z,78.02
2018-04-27T04:06:57.403Z,78.13
2018-04-27T04:09:24.910Z,78.26
2018-04-27T04:11:52.425Z,78.13
2018-04-27T04:14:20.024Z,78.12
2018-04-27T04:16:47.559Z,78.20
2018-04-27T04:19:15.095Z,78.18
2018-04-27T04:21:42.638Z,78.05
2018-04-27T04:24:10.168Z,77.89
2018-04-27T04:26:37.676Z,78.01
2018-04-27T04:29:05.212Z,78.06
2018-04-27T04:31:32.744Z,78.26
2018-04-27T04:34:00.262Z,78.32
2018-04-27T04:36:27.821Z,78.54
2018-04-27T04:38:55.655Z,78.59
2018-04-27T04:41:23.155Z,78.43
2018-04-27T04:43:50.707Z,78.79
2018-04-27T04:46:18.207Z,78.53
2018-04-27T04:48:45.824Z,78.33
2018-04-27T04:51:13.373Z,78.17
2018-04-27T04:53:41.205Z,78.47
2018-04-27T04:56:08.718Z,78.04
2018-04-27T04:58:36.253Z,77.53
2018-04-27T05:01:03.783Z,77.33
2018-04-27T05:03:31.307Z,77.82
2018-04-27T05:05:58.881Z,77.81
2018-04-27T05:08:26.410Z,77.66
2018-04-27T05:10:54.175Z,77.51
2018-04-27T05:13:21.690Z,78.07
2018-04-27T05:15:49.198Z,77.95
2018-04-27T05:21:29.602Z,77.70
2018-04-27T05:23:57.171Z,77.48
2018-04-27T05:26:24.697Z,77.42
2018-04-27T05:28:52.241Z,77.01
2018-04-27T05:31:23.702Z,76.65
2018-04-27T05:33:51.252Z,76.60
2018-04-27T05:36:18.755Z,76.36
2018-04-27T05:38:46.349Z,75.99
2018-04-27T05:41:15.137Z,75.77
2018-04-27T05:43:42.672Z,75.97
2018-04-27T05:46:10.324Z,75.46
2018-04-27T05:48:37.902Z,75.15
2018-04-27T05:51:05.454Z,74.88
2018-04-27T05:53:33.032Z,74.44
2018-04-27T05:56:00.613Z,74.22
2018-04-27T05:58:28.157Z,74.66
2018-04-27T06:00:55.947Z,74.55
2018-04-27T06:03:23.455Z,73.65
2018-04-27T06:05:50.973Z,73.20
2018-04-27T06:08:18.529Z,72.58
2018-04-27T06:10:46.088Z,72.85
2018-04-27T06:13:13.733Z,72.48
2018-04-27T06:15:41.599Z,71.95
2018-04-27T06:18:09.149Z,70.41
2018-04-27T06:20:36.680Z,69.91
2018-04-27T06:23:04.235Z,69.51
2018-04-27T06:25:32.170Z,69.22
2018-04-27T06:27:59.816Z,68.64
2018-04-27T06:30:27.394Z,67.25
2018-04-27T06:32:55.706Z,66.50
2018-04-27T06:35:23.232Z,64.54
2018-04-27T06:37:50.782Z,64.39
2018-04-27T06:40:18.947Z,63.83
2018-04-27T06:42:48.151Z,63.06
2018-04-27T06:45:15.761Z,62.81
2018-04-27T06:47:43.388Z,62.36
2018-04-27T06:50:12.845Z,61.28
2018-04-27T06:52:40.454Z,59.89
2018-04-27T06:55:08.007Z,60.16
2018-04-27T06:57:35.837Z,59.74
2018-04-27T07:00:05.570Z,58.63
2018-04-27T07:02:35.493Z,58.78
2018-04-27T07:05:03.212Z,58.82
2018-04-27T07:07:40.973Z,57.97
2018-04-27T07:10:08.637Z,57.68
2018-04-27T07:12:36.222Z,57.70
2018-04-27T07:15:03.947Z,59.71
2018-04-27T07:17:31.510Z,59.21
2018-04-27T07:20:00.191Z,59.34
2018-04-27T07:22:28.498Z,58.94
2018-04-27T07:24:56.621Z,58.65
2018-04-27T07:27:24.223Z,58.61
2018-04-27T07:29:52.185Z,58.30
2018-04-27T07:32:20.009Z,57.56
2018-04-27T07:34:47.929Z,57.62
2018-04-27T07:37:15.624Z,58.05
2018-04-27T07:39:43.221Z,58.13
2018-04-27T07:42:10.756Z,57.75
2018-04-27T07:44:38.347Z,58.21
2018-04-27T07:47:06.997Z,58.30
2018-04-27T07:49:34.612Z,57.23
2018-04-27T07:52:02.188Z,56.18
2018-04-27T07:54:29.739Z,55.12
2018-04-27T07:56:57.286Z,55.41
2018-04-27T07:59:25.164Z,55.66
2018-04-27T08:01:52.669Z,55.89
2018-04-27T08:04:20.198Z,55.12
2018-04-27T08:06:48.697Z,54.37
2018-04-27T08:09:16.253Z,53.14
2018-04-27T08:11:43.813Z,52.47
2018-04-27T08:14:11.396Z,53.09
2018-04-27T08:16:38.901Z,51.79
2018-04-27T08:19:06.439Z,50.92
2018-04-27T08:21:34.073Z,50.90
2018-04-27T08:24:01.706Z,51.27
2018-04-27T08:26:29.261Z,50.72
2018-04-27T08:28:59.783Z,48.98
2018-04-27T08:31:27.341Z,49.76
2018-04-27T08:33:54.959Z,48.08
2018-04-27T08:36:22.541Z,47.46
2018-04-27T08:38:50.177Z,47.58
2018-04-27T08:41:17.756Z,48.44
2018-04-27T08:43:45.352Z,48.98
2018-04-27T08:46:12.957Z,49.15
2018-04-27T08:48:40.483Z,49.44
2018-04-27T08:51:08.095Z,47.57
2018-04-27T08:53:35.727Z,46.41
2018-04-27T08:56:03.342Z,45.98
2018-04-27T08:58:30.988Z,44.88
2018-04-27T09:00:58.567Z,43.23
2018-04-27T09:03:26.115Z,43.55
2018-04-27T09:05:54.165Z,42.83
2018-04-27T09:08:22.118Z,42.68
2018-04-27T09:10:49.666Z,42.54
2018-04-27T09:13:17.203Z,42.49
2018-04-27T09:15:44.724Z,41.49
2018-04-27T09:18:12.290Z,41.64
2018-04-27T09:20:39.839Z,40.17
2018-04-27T09:23:07.366Z,40.66
2018-04-27T09:25:34.922Z,40.63
2018-04-27T09:28:02.466Z,39.78
2018-04-27T09:30:29.994Z,38.86
2018-04-27T09:32:57.539Z,38.75
2018-04-27T09:35:25.491Z,37.82
2018-04-27T09:37:53.001Z,36.39
2018-04-27T09:40:20.551Z,36.76
2018-04-27T09:42:48.155Z,36.53
2018-04-27T09:45:15.744Z,36.41
2018-04-27T09:47:43.287Z,36.69
2018-04-27T09:50:10.864Z,36.78
2018-04-27T09:52:38.473Z,35.88
2018-04-27T09:55:06.259Z,36.32
2018-04-27T09:57:33.850Z,37.77
2018-04-27T10:00:01.692Z,38.08
2018-04-27T10:02:29.226Z,37.88
2018-04-27T10:04:56.957Z,38.05
2018-04-27T10:07:24.504Z,37.87
2018-04-27T10:09:52.167Z,38.52
2018-04-27T10:12:19.758Z,40.20
2018-04-27T10:14:47.332Z,39.52
2018-04-27T10:17:14.918Z,37.83
2018-04-27T10:19:42.508Z,37.18
2018-04-27T10:22:10.135Z,37.13
2018-04-27T10:24:37.728Z,36.92
2018-04-27T10:27:05.341Z,36.46
2018-04-27T10:29:32.879Z,37.12
2018-04-27T10:32:00.916Z,36.84
2018-04-27T10:34:28.957Z,35.71
2018-04-27T10:36:56.522Z,33.35
2018-04-27T10:39:24.279Z,34.90
2018-04-27T10:41:51.910Z,35.33
2018-04-27T10:44:19.573Z,35.04
2018-04-27T10:46:48.796Z,35.19
2018-04-27T10:49:16.331Z,36.23
2018-04-27T10:51:43.874Z,35.46
2018-04-27T10:54:11.417Z,33.51
2018-04-27T10:56:38.979Z,33.26
2018-04-27T10:59:06.521Z,34.50
2018-04-27T11:01:34.058Z,33.55
2018-04-27T11:04:01.619Z,35.02
2018-04-27T11:06:29.149Z,35.42
2018-04-27T11:08:56.673Z,35.01
2018-04-27T11:11:24.242Z,36.26
2018-04-27T11:13:51.816Z,36.57
2018-04-27T11:16:19.400Z,35.52
2018-04-27T11:18:46.984Z,34.84
2018-04-27T11:21:14.503Z,34.62
2018-04-27T11:23:42.433Z,33.91
2018-04-27T11:26:09.999Z,35.99
2018-04-27T11:28:37.583Z,35.67
2018-04-27T11:31:05.081Z,34.59
2018-04-27T11:33:32.677Z,34.81
2018-04-27T11:36:00.206Z,35.19
2018-04-27T11:38:27.730Z,34.86
2018-04-27T11:40:55.293Z,33.63
2018-04-27T11:43:22.815Z,31.41
2018-04-27T11:45:50.345Z,28.73
2018-04-27T11:48:17.917Z,27.82
2018-04-27T11:50:45.683Z,27.01
2018-04-27T11:53:13.208Z,29.92
2018-04-27T11:55:40.795Z,30.96
2018-04-27T11:58:08.347Z,29.79
2018-04-27T12:00:35.878Z,27.26
2018-04-27T12:03:03.710Z,26.62
2018-04-27T12:05:31.269Z,25.15
2018-04-27T12:08:00.019Z,26.31
2018-04-27T12:10:27.615Z,27.31
2018-04-27T12:12:55.177Z,25.93
2018-04-27T12:15:22.765Z,25.52
2018-04-27T12:17:50.751Z,24.17
2018-04-27T12:20:18.290Z,22.00
2018-04-27T12:22:47.100Z,22.44
2018-04-27T12:25:14.705Z,23.61
2018-04-27T12:27:44.044Z,23.51
2018-04-27T12:30:11.640Z,25.17
2018-04-27T12:32:39.558Z,26.24
2018-04-27T12:35:08.088Z,28.68
2018-04-27T12:37:35.912Z,26.24
2018-04-27T12:40:03.459Z,25.90
2018-04-27T12:42:31.620Z,27.99
2018-04-27T12:44:59.444Z,27.28
2018-04-27T12:47:26.953Z,26.56
2018-04-27T12:49:54.749Z,25.74
2018-04-27T12:52:22.611Z,25.24
2018-04-27T12:54:50.211Z,27.26
2018-04-27T12:57:17.738Z,28.24
2018-04-27T12:59:46.633Z,29.63
2018-04-27T13:02:15.566Z,30.72
2018-04-27T13:04:43.124Z,28.16
2018-04-27T13:07:13.222Z,26.58
2018-04-27T13:09:40.751Z,25.79
2018-04-27T13:12:09.700Z,27.18
2018-04-27T13:14:37.256Z,28.53
2018-04-27T13:17:06.055Z,30.82
2018-04-27T13:19:33.574Z,31.62
2018-04-27T13:22:01.121Z,31.74
2018-04-27T13:24:28.729Z,30.44
2018-04-27T13:26:56.657Z,30.70
2018-04-27T13:29:24.204Z,29.43
2018-04-27T13:31:51.736Z,29.98
2018-04-27T13:34:19.306Z,31.02
2018-04-27T13:36:46.837Z,31.04
2018-04-27T13:39:15.688Z,31.78
2018-04-27T13:41:43.983Z,32.38
2018-04-27T13:44:11.528Z,32.30
2018-04-27T13:46:39.099Z,32.09
2018-04-27T13:49:07.849Z,31.96
2018-04-27T13:51:35.501Z,32.10
2018-04-27T13:54:03.576Z,32.55
2018-04-27T13:56:31.451Z,32.10
2018-04-27T13:59:02.174Z,32.03
2018-04-27T14:01:30.243Z,32.66
2018-04-27T14:03:57.864Z,32.07
2018-04-27T14:06:25.386Z,32.13
2018-04-27T14:08:55.867Z,31.59
2018-04-27T14:11:23.405Z,30.68
2018-04-27T14:13:50.928Z,31.14
2018-04-27T14:16:18.969Z,32.34
2018-04-27T14:18:48.595Z,31.98
2018-04-27T14:21:16.136Z,32.43
2018-04-27T14:23:43.694Z,32.47
2018-04-27T14:26:11.224Z,32.28
2018-04-27T14:28:38.754Z,33.50
2018-04-27T14:31:06.660Z,32.81
2018-04-27T14:33:35.756Z,31.47
2018-04-27T14:36:03.608Z,31.42
2018-04-27T14:38:31.179Z,31.91
2018-04-27T14:40:58.772Z,31.58
2018-04-27T14:43:26.238Z,31.88
2018-04-27T14:45:53.795Z,32.62
2018-04-27T14:48:21.390Z,32.68
2018-04-27T14:50:48.899Z,32.75
2018-04-27T14:53:16.457Z,32.42
2018-04-27T14:55:44.009Z,32.80
2018-04-27T14:58:11.526Z,32.89
2018-04-27T15:00:39.323Z,32.99
2018-04-27T15:03:06.870Z,33.71
2018-04-27T15:05:34.432Z,33.40
2018-04-27T15:08:01.982Z,33.34
2018-04-27T15:10:29.552Z,34.77
2018-04-27T15:12:57.327Z,34.32
2018-04-27T15:15:24.984Z,34.54
2018-04-27T15:17:52.528Z,34.44
2018-04-27T15:20:20.034Z,34.27
2018-04-27T15:22:47.587Z,33.92
2018-04-27T15:25:15.208Z,33.85
2018-04-27T15:27:43.046Z,34.71
2018-04-27T15:30:10.590Z,34.78
2018-04-27T15:32:38.124Z,33.88
2018-04-27T15:35:05.667Z,32.74
2018-04-27T15:37:33.221Z,34.08
2018-04-27T15:40:01.914Z,33.36
2018-04-27T15:42:29.501Z,33.74
2018-04-27T15:44:57.099Z,33.51
2018-04-27T15:47:24.650Z,33.75
2018-04-27T15:49:52.280Z,34.31
2018-04-27T15:52:20.139Z,34.29
2018-04-27T15:54:47.649Z,34.11
2018-04-27T15:57:15.215Z,34.05
2018-04-27T15:59:43.127Z,33.90
2018-04-27T16:02:11.763Z,33.56
2018-04-27T16:04:39.316Z,33.96
2018-04-27T16:07:06.899Z,33.84
2018-04-27T16:09:35.284Z,34.05
2018-04-27T16:12:02.766Z,33.73
2018-04-27T16:14:30.643Z,33.10
2018-04-27T16:16:58.169Z,32.47
2018-04-27T16:19:25.691Z,33.34
2018-04-27T16:21:53.282Z,33.02
2018-04-27T16:24:21.778Z,33.49
2018-04-27T16:26:50.249Z,33.40
2018-04-27T16:29:20.817Z,33.46
2018-04-27T16:31:50.049Z,33.91
2018-04-27T16:34:17.578Z,34.44
2018-04-27T16:36:45.121Z,34.98
2018-04-27T16:39:12.667Z,34.89
2018-04-27T16:41:40.180Z,34.47
2018-04-27T16:44:07.776Z,34.71
2018-04-27T16:46:35.352Z,35.15
2018-04-27T16:49:04.477Z,35.07
2018-04-27T16:51:32.710Z,34.28
2018-04-27T16:54:00.517Z,34.03
2018-04-27T16:56:28.045Z,34.42
2018-04-27T16:58:55.607Z,35.01
2018-04-27T17:01:24.000Z,35.16
2018-04-27T17:03:51.734Z,35.13
2018-04-27T17:06:19.335Z,35.42
2018-04-27T17:08:49.238Z,35.32
2018-04-27T17:11:16.748Z,35.48
2018-04-27T17:13:44.328Z,35.54
2018-04-27T17:16:11.884Z,35.10
2018-04-27T17:18:39.452Z,35.51
2018-04-27T17:21:08.613Z,35.56
2018-04-27T17:23:37.655Z,36.05
2018-04-27T17:26:05.391Z,35.91
2018-04-27T17:28:32.989Z,36.45
2018-04-27T17:31:00.536Z,36.77
2018-04-27T17:33:28.298Z,36.47
2018-04-27T17:35:55.845Z,36.16
2018-04-27T17:38:23.554Z,36.35
2018-04-27T17:40:51.082Z,36.73
2018-04-27T17:43:20.919Z,36.54
2018-04-27T17:45:48.524Z,36.28
2018-04-27T17:48:16.207Z,36.79
2018-04-27T17:50:43.849Z,37.42
2018-04-27T17:53:11.494Z,37.22
2018-04-27T17:55:39.107Z,37.65
2018-04-27T17:58:06.592Z,37.66
2018-04-27T18:00:35.566Z,37.82
2018-04-27T18:03:03.137Z,38.64
2018-04-27T18:05:30.686Z,38.80
2018-04-27T18:08:02.220Z,39.78
2018-04-27T18:10:29.784Z,39.28
2018-04-27T18:12:57.365Z,39.69
2018-04-27T18:15:24.883Z,40.53
2018-04-27T18:17:55.139Z,41.13
2018-04-27T18:20:22.756Z,41.37
2018-04-27T18:22:50.357Z,41.07
2018-04-27T18:25:17.951Z,41.12
2018-04-27T18:27:45.778Z,41.19
2018-04-27T18:30:13.288Z,40.25
2018-04-27T18:32:41.233Z,41.48
2018-04-27T18:35:08.770Z,41.59
2018-04-27T18:37:36.344Z,41.12
2018-04-27T18:40:03.874Z,41.40
2018-04-27T18:42:31.538Z,41.78
2018-04-27T18:44:59.213Z,41.40
2018-04-27T18:47:26.870Z,42.21
2018-04-27T18:49:54.426Z,42.32
2018-04-27T18:52:37.458Z,42.25
2018-04-27T18:55:04.991Z,43.02
2018-04-27T18:57:32.521Z,42.80
2018-04-27T19:00:00.050Z,42.21
2018-04-27T19:02:32.587Z,42.33
2018-04-27T19:05:00.579Z,42.59
2018-04-27T19:07:28.334Z,42.94
2018-04-27T19:09:59.233Z,42.91
2018-04-27T19:12:30.212Z,43.17
2018-04-27T19:14:57.783Z,43.01
2018-04-27T19:17:25.393Z,43.26
2018-04-27T19:19:53.027Z,43.52
2018-04-27T19:22:20.797Z,43.45
2018-04-27T19:24:48.315Z,43.98
2018-04-27T19:27:15.918Z,44.29
2018-04-27T19:29:43.447Z,44.44
2018-04-27T19:32:10.954Z,44.45
2018-04-27T19:34:38.539Z,44.77
2018-04-27T19:37:06.076Z,45.26
2018-04-27T19:39:33.586Z,45.26
2018-04-27T19:42:01.144Z,45.13
2018-04-27T19:44:28.704Z,45.18
2018-04-27T19:46:56.218Z,45.36
2018-04-27T19:49:24.214Z,45.34
2018-04-27T19:51:51.770Z,45.32
2018-04-27T19:54:19.293Z,45.32
2018-04-27T19:56:46.818Z,44.88
2018-04-27T19:59:14.352Z,45.11
2018-04-27T20:01:41.869Z,45.13
2018-04-27T20:04:09.488Z,45.18
2018-04-27T20:06:37.093Z,46.01
2018-04-27T20:09:04.702Z,45.79
2018-04-27T20:11:32.296Z,45.91
2018-04-27T20:13:59.857Z,46.35
2018-04-27T20:16:37.147Z,46.53
2018-04-27T20:19:07.459Z,46.60
2018-04-27T20:21:35.251Z,46.96
2018-04-27T20:24:06.553Z,47.13
2018-04-27T20:26:34.251Z,47.50
2018-04-27T20:29:02.591Z,47.72
2018-04-27T20:31:30.507Z,47.88
2018-04-27T20:33:58.075Z,48.19
2018-04-27T20:36:25.609Z,47.93
2018-04-27T20:38:53.226Z,48.29
2018-04-27T20:41:20.730Z,48.33
2018-04-27T20:43:48.242Z,48.54
2018-04-27T20:46:18.564Z,48.85
2018-04-27T20:48:46.149Z,49.19
2018-04-27T20:51:13.716Z,49.26
2018-04-27T20:53:42.812Z,49.48
2018-04-27T20:56:10.371Z,49.63
2018-04-27T20:58:37.901Z,49.75
2018-04-27T21:01:05.431Z,49.84
2018-04-27T21:03:32.985Z,50.28
2018-04-27T21:06:00.516Z,50.43
2018-04-27T21:08:28.054Z,50.74
2018-04-27T21:10:55.647Z,50.72
2018-04-27T21:13:23.149Z,50.91
2018-04-27T21:15:50.699Z,50.91
2018-04-27T21:18:18.210Z,51.06
2018-04-27T21:20:45.716Z,51.11
2018-04-27T21:23:13.255Z,51.25
2018-04-27T21:25:40.781Z,51.52
2018-04-27T21:28:21.725Z,51.21
2018-04-27T21:30:49.220Z,51.43
2018-04-27T21:33:16.789Z,51.45
2018-04-27T21:35:53.849Z,51.74
2018-04-27T21:38:42.925Z,51.91
2018-04-27T21:41:17.882Z,51.90
2018-04-27T21:43:45.721Z,52.00
2018-04-27T21:46:13.228Z,51.88
2018-04-27T21:48:40.809Z,52.08
2018-04-27T21:51:08.371Z,52.45
2018-04-27T21:53:35.924Z,52.66
2018-04-27T21:56:03.458Z,52.77
2018-04-27T21:58:30.953Z,52.77
2018-04-27T22:00:58.535Z,52.88
2018-04-27T22:03:26.085Z,52.98
2018-04-27T22:05:57.279Z,53.00
2018-04-27T22:08:41.357Z,53.18
2018-04-27T22:11:11.872Z,53.44
2018-04-27T22:13:39.393Z,53.50
2018-04-27T22:16:13.141Z,53.35
2018-04-27T22:18:40.694Z,53.40
2018-04-27T22:21:08.515Z,53.68
2018-04-27T22:23:36.823Z,53.76
2018-04-27T22:26:05.301Z,53.93
2018-04-27T22:28:38.684Z,54.08
2018-04-27T22:31:06.202Z,53.91
2018-04-27T22:33:40.639Z,54.15
2018-04-27T22:36:15.798Z,54.20
2018-04-27T22:38:43.323Z,54.32
2018-04-27T22:41:12.572Z,54.65
2018-04-27T22:43:40.168Z,54.68
2018-04-27T22:46:27.445Z,54.49
2018-04-27T22:48:59.242Z,54.47
2018-04-27T22:51:44.363Z,54.72
2018-04-27T22:57:19.692Z,54.89
2018-04-27T22:59:49.846Z,54.98
2018-04-27T23:02:21.029Z,55.20
2018-04-27T23:05:00.397Z,55.00
2018-04-27T23:07:35.877Z,55.15
2018-04-27T23:10:03.395Z,55.63
2018-04-27T23:12:36.426Z,55.07
2018-04-27T23:15:04.866Z,55.17
2018-04-27T23:17:32.788Z,55.64
2018-04-27T23:20:03.174Z,55.77
2018-04-27T23:22:40.763Z,56.22
2018-04-27T23:28:03.427Z,56.07
2018-04-27T23:30:32.828Z,56.10
2018-04-27T23:33:00.366Z,56.30
2018-04-27T23:35:27.893Z,56.51
2018-04-27T23:37:55.903Z,56.44
2018-04-27T23:40:23.438Z,56.64
2018-04-27T23:42:51.059Z,57.04
2018-04-27T23:45:18.629Z,56.80
2018-04-27T23:47:46.135Z,56.88
2018-04-27T23:50:14.743Z,56.87
2018-04-27T23:52:42.296Z,56.97
2018-04-27T23:55:09.815Z,57.23
2018-04-27T23:57:37.311Z,57.36
